Time;durP1;ratioP1;P1;durP2;ratioP2;P2;SDS_P1;SDS_P2;PMS_P1;PMS_P2;Temp;Humidity;BMP_temperature;BMP_pressure;BME280_temperature;BME280_humidity;BME280_pressure;Samples;Min_cycle;Max_cycle;Signal;HPM_P1;HPM_P2
2022/08/09 00:02:10;;;;;;;2.73;2.53;;;21.20;57.70;;;;;;5053932;28;20446;-56
2022/08/09 00:04:37;;;;;;;4.03;3.00;;;21.20;57.90;;;;;;5052989;28;20481;-56
2022/08/09 00:07:05;;;;;;;4.33;2.67;;;21.30;58.20;;;;;;5053480;28;20926;-56
2022/08/09 00:09:32;;;;;;;3.37;3.07;;;21.50;58.10;;;;;;5053864;28;20548;-56
2022/08/09 00:11:59;;;;;;;3.60;2.80;;;21.50;58.20;;;;;;5053372;28;20504;-57
2022/08/09 00:14:28;;;;;;;3.33;3.10;;;21.40;58.50;;;;;;5053568;28;20564;-57
2022/08/09 00:16:55;;;;;;;5.20;2.83;;;21.30;58.20;;;;;;5053725;28;20456;-56
2022/08/09 00:19:23;;;;;;;3.70;2.70;;;;;;;;;;5053373;28;20952;-57
2022/08/09 00:21:50;;;;;;;4.70;3.10;;;21.00;58.50;;;;;;5053427;28;20469;-56
2022/08/09 00:24:17;;;;;;;3.10;2.90;;;20.90;58.90;;;;;;5053434;28;20529;-56
2022/08/09 00:26:46;;;;;;;2.47;2.27;;;20.90;59.00;;;;;;5053141;28;20536;-56
2022/08/09 00:29:13;;;;;;;3.30;3.00;;;20.90;58.60;;;;;;5053457;28;20451;-56
2022/08/09 00:31:41;;;;;;;2.93;2.70;;;21.00;58.70;;;;;;5053525;28;20465;-56
2022/08/09 00:34:09;;;;;;;2.93;2.67;;;21.00;58.70;;;;;;5053019;28;20492;-56
2022/08/09 00:36:36;;;;;;;4.33;3.50;;;20.90;58.70;;;;;;5053381;28;20455;-56
2022/08/09 00:39:03;;;;;;;4.00;2.80;;;21.00;58.80;;;;;;5053343;28;20499;-56
2022/08/09 00:41:31;;;;;;;3.37;3.07;;;21.00;58.60;;;;;;5053319;28;20465;-57
2022/08/09 00:43:58;;;;;;;2.90;2.60;;;21.50;58.10;;;;;;5052941;28;20441;-56
2022/08/09 00:46:25;;;;;;;2.80;2.60;;;21.30;57.90;;;;;;5053127;28;20584;-56
2022/08/09 00:48:53;;;;;;;3.10;2.90;;;21.20;58.20;;;;;;5053347;28;20808;-56
2022/08/09 00:51:20;;;;;;;3.80;3.17;;;21.10;58.50;;;;;;5053134;28;20473;-56
2022/08/09 00:53:49;;;;;;;4.43;3.03;;;21.10;58.90;;;;;;5052823;28;20477;-56
2022/08/09 00:56:17;;;;;;;3.10;2.70;;;21.00;58.80;;;;;;5053243;28;20563;-56
2022/08/09 00:58:44;;;;;;;2.97;2.77;;;20.90;59.20;;;;;;5053106;28;20455;-56
2022/08/09 01:01:18;;;;;;;4.60;3.03;;;20.90;59.50;;;;;;5053001;28;20556;-57
2022/08/09 01:03:54;;;;;;;8.63;3.87;;;20.90;59.30;;;;;;5052927;28;20894;-56
2022/08/09 01:06:33;;;;;;;5.40;3.43;;;20.80;59.50;;;;;;5053190;28;20441;-57
2022/08/09 01:09:08;;;;;;;4.47;3.53;;;20.40;59.90;;;;;;5053065;28;20430;-57
2022/08/09 01:11:48;;;;;;;4.20;3.20;;;20.20;60.60;;;;;;5052649;28;20547;-56
2022/08/09 01:14:22;;;;;;;3.97;3.40;;;20.30;61.10;;;;;;5053386;28;20473;-56
2022/08/09 01:16:55;;;;;;;3.33;3.03;;;20.30;61.20;;;;;;5057063;28;20430;-56
2022/08/09 01:19:38;;;;;;;6.40;3.37;;;20.20;61.50;;;;;;5056806;28;20508;-56
2022/08/09 01:22:23;;;;;;;3.80;3.37;;;20.20;61.90;;;;;;5056770;28;20442;-57
2022/08/09 01:25:00;;;;;;;4.40;3.17;;;20.40;61.90;;;;;;5056682;28;20439;-57
2022/08/09 01:27:30;;;;;;;4.47;3.33;;;20.50;61.50;;;;;;5056944;28;20437;-56
2022/08/09 01:30:00;;;;;;;7.50;4.47;;;20.60;61.60;;;;;;5056465;28;20524;-56
2022/08/09 01:32:32;;;;;;;4.20;3.10;;;20.60;61.90;;;;;;5056398;28;20540;-56
2022/08/09 01:35:02;;;;;;;3.33;3.03;;;20.60;62.00;;;;;;5056769;28;20466;-56
2022/08/09 01:37:30;;;;;;;3.63;3.10;;;20.60;61.80;;;;;;5056390;28;20898;-56
2022/08/09 01:40:02;;;;;;;8.40;3.90;;;20.50;62.60;;;;;;5056416;28;20465;-56
2022/08/09 01:42:35;;;;;;;3.60;3.30;;;20.50;62.40;;;;;;5056248;28;20465;-56
2022/08/09 01:45:04;;;;;;;5.17;3.13;;;20.20;62.80;;;;;;5056620;28;20440;-56
2022/08/09 01:47:32;;;;;;;3.20;2.90;;;20.10;63.50;;;;;;5056152;28;20479;-57
2022/08/09 01:50:02;;;;;;;3.50;3.00;;;20.20;63.60;;;;;;5056125;28;20480;-56
2022/08/09 01:52:31;;;;;;;3.90;3.30;;;20.30;63.60;;;;;;5056309;28;20479;-56
2022/08/09 01:55:00;;;;;;;3.70;3.10;;;20.20;63.50;;;;;;5056034;28;20485;-56
2022/08/09 01:57:36;;;;;;;3.53;3.20;;;20.10;63.80;;;;;;5056240;28;20535;-56
2022/08/09 02:00:08;;;;;;;4.10;3.17;;;20.00;64.30;;;;;;5056187;28;20460;-57
2022/08/09 02:02:40;;;;;;;5.83;3.90;;;19.80;64.80;;;;;;5056359;28;20786;-56
2022/08/09 02:05:10;;;;;;;3.73;3.43;;;19.90;65.30;;;;;;5055975;28;20425;-56
2022/08/09 02:07:41;;;;;;;3.57;3.20;;;19.90;65.60;;;;;;5055758;28;20989;-56
2022/08/09 02:10:14;;;;;;;4.23;3.20;;;20.10;65.60;;;;;;5055820;28;20567;-56
2022/08/09 02:12:44;;;;;;;4.30;3.90;;;20.20;64.70;;;;;;5056014;28;20426;-56
2022/08/09 02:15:13;;;;;;;4.63;3.50;;;19.80;65.60;;;;;;5056041;28;20469;-56
2022/08/09 02:17:42;;;;;;;3.70;3.27;;;19.70;66.10;;;;;;5055594;28;20941;-57
2022/08/09 02:20:11;;;;;;;6.00;4.30;;;19.60;66.40;;;;;;5055794;28;20479;-56
2022/08/09 02:22:40;;;;;;;3.80;3.50;;;19.70;67.00;;;;;;5055586;28;20461;-57
2022/08/09 02:25:12;;;;;;;4.30;3.90;;;19.60;66.90;;;;;;5055689;28;20524;-56
2022/08/09 02:27:46;;;;;;;4.50;2.87;;;19.60;67.50;;;;;;5054635;28;20407;-57
2022/08/09 02:30:14;;;;;;;6.40;4.30;;;19.80;67.50;;;;;;5055465;28;20465;-56
2022/08/09 02:32:45;;;;;;;9.10;3.47;;;19.90;67.60;;;;;;5055422;28;20445;-56
2022/08/09 02:35:20;;;;;;;3.50;3.10;;;20.00;67.40;;;;;;5055358;28;20461;-56
2022/08/09 02:37:49;;;;;;;3.97;3.57;;;19.70;68.00;;;;;;5055226;28;20425;-56
2022/08/09 02:40:18;;;;;;;4.40;4.00;;;19.50;69.00;;;;;;5055564;28;20813;-56
2022/08/09 02:42:50;;;;;;;3.57;3.27;;;19.50;69.60;;;;;;5055716;28;20449;-57
2022/08/09 02:45:23;;;;;;;8.30;3.60;;;19.80;69.00;;;;;;5055691;28;20430;-56
2022/08/09 02:47:53;;;;;;;3.83;3.43;;;19.60;69.00;;;;;;5055298;28;20458;-56
2022/08/09 02:50:24;;;;;;;3.83;3.23;;;19.60;69.90;;;;;;5055243;28;20474;-56
2022/08/09 02:52:56;;;;;;;3.77;3.40;;;19.40;70.30;;;;;;5055441;28;20606;-57
2022/08/09 02:55:26;;;;;;;7.27;3.73;;;19.30;70.80;;;;;;5055083;28;20469;-56
2022/08/09 02:57:56;;;;;;;6.20;3.73;;;19.10;71.50;;;;;;5054928;28;20445;-56
2022/08/09 03:00:25;;;;;;;6.43;3.10;;;19.20;72.00;;;;;;5055283;28;20556;-57
2022/08/09 03:02:55;;;;;;;5.17;3.53;;;19.20;71.80;;;;;;5055362;28;20536;-58
2022/08/09 03:05:24;;;;;;;6.47;3.40;;;19.20;72.80;;;;;;5054786;28;20445;-56
2022/08/09 03:07:53;;;;;;;4.50;3.63;;;19.30;73.20;;;;;;5054604;28;20449;-56
2022/08/09 03:10:21;;;;;;;4.03;3.60;;;19.40;72.50;;;;;;5054865;28;21001;-56
2022/08/09 03:12:49;;;;;;;4.47;3.43;;;19.50;72.60;;;;;;5054733;28;20937;-56
2022/08/09 03:15:19;;;;;;;3.80;3.50;;;19.60;72.70;;;;;;5054393;28;20565;-56
2022/08/09 03:17:47;;;;;;;5.73;3.67;;;19.60;72.70;;;;;;5054731;28;20453;-56
2022/08/09 03:20:15;;;;;;;4.00;3.40;;;19.70;72.30;;;;;;5054458;28;20476;-56
2022/08/09 03:22:45;;;;;;;3.63;3.13;;;19.30;73.20;;;;;;5054396;28;20451;-56
2022/08/09 03:25:13;;;;;;;6.03;4.07;;;19.20;74.40;;;;;;5054257;28;20786;-57
2022/08/09 03:27:42;;;;;;;3.40;3.10;;;19.10;74.40;;;;;;5054394;28;20540;-56
2022/08/09 03:30:11;;;;;;;4.47;3.53;;;19.10;74.60;;;;;;5054408;28;20472;-56
2022/08/09 03:32:41;;;;;;;5.40;4.43;;;19.10;75.20;;;;;;5054595;28;20461;-56
2022/08/09 03:35:11;;;;;;;8.80;3.70;;;19.30;75.40;;;;;;5054279;28;20481;-56
2022/08/09 03:37:38;;;;;;;3.73;3.10;;;19.40;75.70;;;;;;5053976;28;20968;-56
2022/08/09 03:40:06;;;;;;;3.63;3.30;;;19.50;73.00;;;;;;5054246;28;21019;-56
2022/08/09 03:42:34;;;;;;;6.37;3.43;;;19.30;74.50;;;;;;5053907;28;20929;-57
2022/08/09 03:45:01;;;;;;;4.13;3.83;;;19.20;75.70;;;;;;5054086;28;20451;-57
2022/08/09 03:47:28;;;;;;;4.07;3.63;;;19.10;75.80;;;;;;5053710;28;20492;-56
2022/08/09 03:49:57;;;;;;;4.33;3.33;;;18.90;77.40;;;;;;5054169;28;20453;-56
2022/08/09 03:52:27;;;;;;;3.90;3.50;;;18.80;77.20;;;;;;5054162;28;20540;-57
2022/08/09 03:54:56;;;;;;;4.07;2.97;;;18.90;77.60;;;;;;5054136;28;20824;-57
2022/08/09 03:57:23;;;;;;;5.37;3.40;;;19.00;77.20;;;;;;5053648;28;20429;-56
2022/08/09 03:59:52;;;;;;;9.30;3.63;;;19.10;76.90;;;;;;5053699;28;20449;-58
2022/08/09 04:02:20;;;;;;;4.70;3.37;;;19.20;76.80;;;;;;5054033;28;20544;-57
2022/08/09 04:04:47;;;;;;;4.03;3.63;;;19.20;75.50;;;;;;5053849;28;20528;-56
2022/08/09 04:07:17;;;;;;;3.80;3.50;;;19.20;77.00;;;;;;5053762;28;20483;-56
2022/08/09 04:09:44;;;;;;;8.20;3.40;;;19.10;76.50;;;;;;5053801;28;20921;-56
2022/08/09 04:12:42;;;;;;;5.07;3.97;;;19.30;75.70;;;;;;5053447;28;20956;-56
2022/08/09 04:15:10;;;;;;;6.40;3.30;;;19.00;77.50;;;;;;5053591;28;20469;-56
2022/08/09 04:17:37;;;;;;;5.90;3.30;;;19.10;76.60;;;;;;5053894;28;20449;-56
2022/08/09 04:20:05;;;;;;;4.83;3.33;;;19.10;74.70;;;;;;5053292;28;20476;-56
2022/08/09 04:22:34;;;;;;;3.90;3.37;;;19.10;75.70;;;;;;5053524;28;20445;-56
2022/08/09 04:25:02;;;;;;;5.80;3.47;;;19.20;76.10;;;;;;5053221;28;20438;-56
2022/08/09 04:27:29;;;;;;;3.73;3.40;;;19.30;75.50;;;;;;5053317;28;20453;-57
2022/08/09 04:29:56;;;;;;;4.20;3.20;;;19.20;75.70;;;;;;5053250;28;20938;-57
2022/08/09 04:32:23;;;;;;;3.40;3.10;;;19.20;75.00;;;;;;5053078;28;20956;-57
2022/08/09 04:34:50;;;;;;;7.70;3.60;;;19.30;75.00;;;;;;5053245;28;20481;-57
2022/08/09 04:37:18;;;;;;;4.00;3.57;;;19.30;76.40;;;;;;5053116;28;20449;-56
2022/08/09 04:39:47;;;;;;;3.73;3.40;;;19.30;77.20;;;;;;5052976;28;20453;-56
2022/08/09 04:42:14;;;;;;;3.50;3.13;;;19.30;77.80;;;;;;5053166;28;20453;-56
2022/08/09 04:44:41;;;;;;;6.40;4.13;;;19.30;78.10;;;;;;5053372;28;20449;-56
2022/08/09 04:47:08;;;;;;;6.30;4.07;;;19.00;79.40;;;;;;5052718;28;20487;-57
2022/08/09 04:49:37;;;;;;;4.10;3.70;;;18.90;79.90;;;;;;5052566;28;20445;-57
2022/08/09 04:52:05;;;;;;;4.83;3.43;;;18.90;80.50;;;;;;5053281;28;20453;-56
2022/08/09 04:54:33;;;;;;;5.77;3.03;;;18.90;80.50;;;;;;5053152;28;20481;-56
2022/08/09 04:57:01;;;;;;;4.73;3.77;;;19.10;80.60;;;;;;5052904;28;20445;-56
2022/08/09 04:59:28;;;;;;;4.93;3.27;;;19.10;80.80;;;;;;5053176;28;20475;-56
2022/08/09 05:01:56;;;;;;;6.63;3.80;;;19.10;80.90;;;;;;5052968;28;20473;-57
2022/08/09 05:04:23;;;;;;;3.20;3.00;;;19.10;81.10;;;;;;5052998;28;20445;-56
2022/08/09 05:06:50;;;;;;;6.70;3.87;;;19.10;81.00;;;;;;5053123;28;20473;-56
2022/08/09 05:09:17;;;;;;;7.40;3.50;;;19.10;81.50;;;;;;5052754;28;20446;-56
2022/08/09 05:11:45;;;;;;;4.40;4.00;;;19.20;81.60;;;;;;5052621;28;20476;-56
2022/08/09 05:14:16;;;;;;;3.43;3.13;;;19.20;81.60;;;;;;5052712;28;20436;-57
2022/08/09 05:16:44;;;;;;;5.23;3.53;;;19.30;81.90;;;;;;5052668;28;20972;-57
2022/08/09 05:19:20;;;;;;;7.73;3.87;;;19.20;82.50;;;;;;5052868;28;20445;-57
2022/08/09 05:21:48;;;;;;;7.20;3.67;;;19.20;82.40;;;;;;5052758;28;20469;-57
2022/08/09 05:24:19;;;;;;;5.17;4.13;;;19.30;82.70;;;;;;5052457;28;20799;-56
2022/08/09 05:26:46;;;;;;;3.93;3.63;;;19.40;83.10;;;;;;5052543;28;20533;-56
2022/08/09 05:29:20;;;;;;;5.03;3.97;;;19.40;82.50;;;;;;5052743;28;20546;-56
2022/08/09 05:31:48;;;;;;;4.00;3.60;;;19.40;82.10;;;;;;5052379;28;21034;-56
2022/08/09 05:34:19;;;;;;;5.60;4.23;;;19.40;83.70;;;;;;5052599;28;20445;-56
2022/08/09 05:36:46;;;;;;;5.73;3.50;;;19.50;81.80;;;;;;5052486;28;20469;-57
2022/08/09 05:39:16;;;;;;;6.60;3.57;;;19.60;82.20;;;;;;5052422;28;20448;-56
2022/08/09 05:41:43;;;;;;;8.60;4.30;;;19.60;82.10;;;;;;5052008;28;20588;-56
2022/08/09 05:44:13;;;;;;;11.00;4.20;;;19.70;80.90;;;;;;5052124;28;20463;-56
2022/08/09 05:46:45;;;;;;;4.40;3.73;;;19.70;82.00;;;;;;5052251;28;20861;-56
2022/08/09 05:49:12;;;;;;;4.10;3.40;;;19.70;82.20;;;;;;5052088;28;20461;-56
2022/08/09 05:51:39;;;;;;;4.53;3.83;;;19.80;83.70;;;;;;5052578;28;20475;-57
2022/08/09 05:54:06;;;;;;;4.67;3.83;;;19.80;81.80;;;;;;5052111;28;20453;-56
2022/08/09 05:56:37;;;;;;;9.37;3.83;;;19.90;81.30;;;;;;5051684;28;20523;-57
2022/08/09 05:59:04;;;;;;;7.40;4.10;;;20.00;82.80;;;;;;5052213;28;20460;-57
2022/08/09 06:01:31;;;;;;;7.30;4.50;;;20.20;81.40;;;;;;5054340;28;20466;-56
2022/08/09 06:04:01;;;;;;;5.40;4.70;;;20.20;81.40;;;;;;5055681;28;20556;-57
2022/08/09 06:06:28;;;;;;;9.60;4.87;;;20.30;82.20;;;;;;5055815;28;20457;-57
2022/08/09 06:08:55;;;;;;;7.23;5.53;;;20.40;82.00;;;;;;5055989;28;20452;-57
2022/08/09 06:11:22;;;;;;;8.83;4.33;;;20.50;80.90;;;;;;5055751;28;20481;-57
2022/08/09 06:13:50;;;;;;;6.63;5.17;;;20.60;79.70;;;;;;5055332;28;20531;-56
2022/08/09 06:16:17;;;;;;;8.03;4.03;;;20.70;79.50;;;;;;5055538;28;20513;-56
2022/08/09 06:18:44;;;;;;;6.30;4.70;;;21.10;78.30;;;;;;5055510;28;20481;-56
2022/08/09 06:21:15;;;;;;;6.70;4.60;;;21.10;79.60;;;;;;5055592;28;20465;-57
2022/08/09 06:23:46;;;;;;;4.50;3.90;;;21.00;79.30;;;;;;5055490;28;20457;-56
2022/08/09 06:26:17;;;;;;;4.37;4.07;;;21.00;79.30;;;;;;5055669;28;20517;-57
2022/08/09 06:28:44;;;;;;;4.90;4.23;;;21.00;78.60;;;;;;5055284;28;20961;-57
2022/08/09 06:31:12;;;;;;;13.37;4.77;;;21.10;78.80;;;;;;5055503;28;20556;-56
2022/08/09 06:33:39;;;;;;;5.60;4.73;;;21.20;79.20;;;;;;5055524;28;20449;-56
2022/08/09 06:36:06;;;;;;;5.53;4.90;;;21.20;78.40;;;;;;5055340;28;20492;-56
2022/08/09 06:38:35;;;;;;;9.73;5.20;;;21.20;79.10;;;;;;5055155;28;20445;-57
2022/08/09 06:41:02;;;;;;;6.23;4.77;;;21.10;80.50;;;;;;5055589;28;20479;-57
2022/08/09 06:43:30;;;;;;;5.50;4.67;;;21.30;78.30;;;;;;5055041;28;20473;-56
2022/08/09 06:45:57;;;;;;;14.13;5.60;;;21.30;77.00;;;;;;5054951;28;20445;-56
2022/08/09 06:48:24;;;;;;;8.23;5.17;;;21.30;77.00;;;;;;5055410;28;20444;-57
2022/08/09 06:50:52;;;;;;;6.93;5.23;;;21.30;76.90;;;;;;5054472;28;20833;-57
2022/08/09 06:53:19;;;;;;;5.30;4.80;;;21.30;78.50;;;;;;5054724;28;20798;-56
2022/08/09 06:55:48;;;;;;;5.43;4.93;;;21.50;78.20;;;;;;5054828;28;20480;-56
2022/08/09 06:58:15;;;;;;;6.53;4.13;;;21.50;78.20;;;;;;5054932;28;20451;-57
2022/08/09 07:00:42;;;;;;;8.83;4.37;;;21.60;76.90;;;;;;5054433;28;20469;-57
2022/08/09 07:03:09;;;;;;;5.60;3.93;;;21.70;76.20;;;;;;5054967;28;20452;-56
2022/08/09 07:05:36;;;;;;;4.63;3.87;;;21.90;76.30;;;;;;5054538;28;20434;-56
2022/08/09 07:08:04;;;;;;;6.13;3.93;;;22.00;74.10;;;;;;5054553;28;20450;-56
2022/08/09 07:10:32;;;;;;;5.30;4.13;;;22.10;75.50;;;;;;5054278;28;20899;-56
2022/08/09 07:13:01;;;;;;;7.27;4.33;;;22.10;75.70;;;;;;5054133;28;20455;-57
2022/08/09 07:15:28;;;;;;;5.33;4.13;;;22.20;75.50;;;;;;5054336;28;20473;-56
2022/08/09 07:17:56;;;;;;;4.90;3.90;;;22.40;74.60;;;;;;5054589;28;20477;-56
2022/08/09 07:20:24;;;;;;;7.50;3.93;;;22.60;73.20;;;;;;5054525;28;20546;-56
2022/08/09 07:22:51;;;;;;;4.60;4.17;;;22.60;73.90;;;;;;5054513;28;20548;-56
2022/08/09 07:25:19;;;;;;;8.97;4.30;;;22.80;73.00;;;;;;5054517;28;20449;-56
2022/08/09 07:27:46;;;;;;;5.73;5.20;;;22.80;74.20;;;;;;5054244;28;20449;-57
2022/08/09 07:30:15;;;;;;;5.90;4.47;;;22.80;73.50;;;;;;5054004;28;20449;-57
2022/08/09 07:32:42;;;;;;;6.03;5.47;;;22.90;73.40;;;;;;5053990;28;20537;-57
2022/08/09 07:35:12;;;;;;;5.50;5.10;;;23.00;74.70;;;;;;5054022;28;20945;-57
2022/08/09 07:37:40;;;;;;;5.13;4.70;;;22.90;73.10;;;;;;5054277;28;20453;-57
2022/08/09 07:40:09;;;;;;;6.50;4.27;;;23.00;73.90;;;;;;5053842;28;20477;-56
2022/08/09 07:42:51;;;;;;;5.63;4.50;;;23.00;72.80;;;;;;5054151;28;20540;-58
2022/08/09 07:45:24;;;;;;;6.03;4.50;;;;;;;;;;5054126;28;20788;-56
2022/08/09 07:47:52;;;;;;;4.53;4.13;;;23.20;72.30;;;;;;5053801;28;20572;-56
2022/08/09 07:50:20;;;;;;;5.20;4.30;;;23.30;73.70;;;;;;5053594;28;20461;-57
2022/08/09 07:52:47;;;;;;;4.10;3.80;;;23.40;72.50;;;;;;5053530;28;20429;-56
2022/08/09 07:55:15;;;;;;;4.50;4.00;;;23.50;72.60;;;;;;5053590;28;20465;-56
2022/08/09 07:57:44;;;;;;;4.93;3.90;;;23.60;70.90;;;;;;5053767;28;20481;-56
2022/08/09 08:00:12;;;;;;;4.70;3.90;;;;;;;;;;5053486;28;20969;-57
2022/08/09 08:02:40;;;;;;;4.67;3.83;;;25.00;68.60;;;;;;5053873;28;20453;-56
2022/08/09 08:05:08;;;;;;;4.50;4.10;;;25.80;66.50;;;;;;5053303;28;20445;-56
2022/08/09 08:07:36;;;;;;;3.77;3.40;;;26.80;65.20;;;;;;5053574;28;20533;-57
2022/08/09 08:10:04;;;;;;;4.87;3.50;;;27.30;62.40;;;;;;5053282;28;20531;-57
2022/08/09 08:12:32;;;;;;;4.47;4.10;;;27.20;61.70;;;;;;5053637;28;20495;-56
2022/08/09 08:14:59;;;;;;;3.70;3.40;;;27.30;61.30;;;;;;5053518;28;20511;-56
2022/08/09 08:17:27;;;;;;;3.90;3.20;;;27.50;60.70;;;;;;5053462;28;20793;-56
2022/08/09 08:19:55;;;;;;;5.93;3.30;;;27.90;60.50;;;;;;5053126;28;20933;-56
2022/08/09 08:22:22;;;;;;;4.20;3.80;;;28.30;59.10;;;;;;5053355;28;20449;-56
2022/08/09 08:24:54;;;;;;;3.33;3.10;;;28.50;58.70;;;;;;5052432;28;20449;-56
2022/08/09 08:27:22;;;;;;;3.50;3.20;;;28.70;58.10;;;;;;5053338;28;20479;-56
2022/08/09 08:29:50;;;;;;;3.47;3.27;;;28.90;58.40;;;;;;5053182;28;20441;-56
2022/08/09 08:32:18;;;;;;;3.70;3.37;;;29.00;58.00;;;;;;5052801;28;20527;-56
2022/08/09 08:34:45;;;;;;;5.37;3.10;;;29.00;57.40;;;;;;5053136;28;20441;-56
2022/08/09 08:37:13;;;;;;;4.10;2.97;;;29.40;57.30;;;;;;5053109;28;20564;-57
2022/08/09 08:39:41;;;;;;;4.37;3.50;;;29.50;57.20;;;;;;5052613;28;20461;-56
2022/08/09 08:42:08;;;;;;;6.53;4.10;;;29.60;56.50;;;;;;5053072;28;20476;-57
2022/08/09 08:44:36;;;;;;;6.00;3.10;;;29.90;56.10;;;;;;5052756;28;20879;-56
2022/08/09 08:47:05;;;;;;;5.53;3.60;;;30.30;56.50;;;;;;5052689;28;20559;-56
2022/08/09 08:49:36;;;;;;;3.77;3.43;;;30.70;55.10;;;;;;5053063;28;20532;-56
2022/08/09 08:52:03;;;;;;;3.17;2.97;;;30.60;54.40;;;;;;5053314;28;20430;-56
2022/08/09 08:54:32;;;;;;;3.37;3.00;;;30.80;55.10;;;;;;5053002;28;20506;-56
2022/08/09 08:56:59;;;;;;;3.70;2.73;;;31.40;54.70;;;;;;5052349;28;20477;-56
2022/08/09 08:59:27;;;;;;;4.07;3.27;;;31.50;54.60;;;;;;5052851;28;20511;-56
2022/08/09 09:01:54;;;;;;;3.10;2.80;;;;;;;;;;5052496;28;20518;-56
2022/08/09 09:04:25;;;;;;;8.23;3.13;;;32.10;53.10;;;;;;5052617;28;20528;-56
2022/08/09 09:06:56;;;;;;;4.67;2.90;;;31.80;52.60;;;;;;5052874;28;20460;-56
2022/08/09 09:09:25;;;;;;;3.63;3.17;;;31.20;52.90;;;;;;5052931;28;20459;-56
2022/08/09 09:11:56;;;;;;;3.80;3.23;;;32.10;52.60;;;;;;5052941;28;20501;-56
2022/08/09 09:14:25;;;;;;;3.40;2.80;;;31.70;52.00;;;;;;5052799;28;20496;-56
2022/08/09 09:16:52;;;;;;;4.10;2.90;;;31.40;52.80;;;;;;5052913;28;20477;-56
2022/08/09 09:19:19;;;;;;;3.40;3.10;;;31.90;51.90;;;;;;5052529;28;20949;-56
2022/08/09 09:22:04;;;;;;;5.07;2.90;;;31.30;51.80;;;;;;5034572;28;20556;-56
2022/08/09 09:24:33;;;;;;;2.73;2.53;;;31.60;52.40;;;;;;5052538;28;20923;-56
2022/08/09 09:27:03;;;;;;;3.87;2.57;;;32.20;51.10;;;;;;5052901;28;20511;-57
2022/08/09 09:29:32;;;;;;;3.40;2.50;;;31.90;50.30;;;;;;5052586;28;20445;-56
2022/08/09 09:31:59;;;;;;;4.17;2.70;;;31.70;51.10;;;;;;5052829;28;20504;-56
2022/08/09 09:34:27;;;;;;;3.57;3.27;;;32.10;50.60;;;;;;5052302;28;20453;-56
2022/08/09 09:36:56;;;;;;;6.20;3.13;;;32.00;49.80;;;;;;5055648;28;20996;-56
2022/08/09 09:39:23;;;;;;;3.50;2.90;;;32.00;50.10;;;;;;5056154;28;20551;-56
2022/08/09 09:41:55;;;;;;;5.40;2.50;;;32.30;50.00;;;;;;5056441;28;20465;-57
2022/08/09 09:44:31;;;;;;;2.60;2.40;;;32.30;49.20;;;;;;5056453;28;20536;-56
2022/08/09 09:47:06;;;;;;;3.73;3.00;;;31.80;48.80;;;;;;5055825;28;20826;-56
2022/08/09 09:49:33;;;;;;;3.63;2.30;;;31.70;48.90;;;;;;5056156;28;20440;-56
2022/08/09 09:52:04;;;;;;;3.23;2.97;;;31.40;49.00;;;;;;5055817;28;20901;-56
2022/08/09 09:54:41;;;;;;;5.47;3.20;;;31.30;48.80;;;;;;5056028;28;20487;-56
2022/08/09 09:57:15;;;;;;;2.77;2.57;;;31.30;48.60;;;;;;5056596;28;20526;-56
2022/08/09 09:59:45;;;;;;;3.80;2.80;;;31.80;49.10;;;;;;5055746;28;20429;-56
2022/08/09 10:02:13;;;;;;;2.70;2.50;;;32.10;48.80;;;;;;5055841;28;20503;-56
2022/08/09 10:04:41;;;;;;;2.90;2.60;;;32.40;48.60;;;;;;5055905;28;20491;-56
2022/08/09 10:07:22;;;;;;;3.10;2.80;;;33.00;48.90;;;;;;5056031;28;20449;-56
2022/08/09 10:09:51;;;;;;;3.60;2.67;;;32.80;47.60;;;;;;5055760;28;20543;-56
2022/08/09 10:12:29;;;;;;;3.10;2.80;;;32.80;48.10;;;;;;5055729;28;20570;-56
2022/08/09 10:15:07;;;;;;;3.17;2.90;;;32.90;47.70;;;;;;5055772;28;20532;-56
2022/08/09 10:17:35;;;;;;;5.20;2.87;;;33.00;47.50;;;;;;5055722;28;20549;-56
2022/08/09 10:20:06;;;;;;;4.40;2.50;;;33.60;47.40;;;;;;5055453;28;20469;-56
2022/08/09 10:22:35;;;;;;;3.20;2.93;;;33.20;47.20;;;;;;5055503;28;20429;-56
2022/08/09 10:25:05;;;;;;;4.80;3.00;;;33.50;47.30;;;;;;5055561;28;20445;-56
2022/08/09 10:27:33;;;;;;;2.80;2.50;;;33.70;46.80;;;;;;5055559;28;20527;-56
2022/08/09 10:30:01;;;;;;;2.43;2.23;;;33.80;46.60;;;;;;5055458;28;20500;-56
2022/08/09 10:32:30;;;;;;;2.80;2.57;;;34.00;46.40;;;;;;5055057;28;20453;-56
2022/08/09 10:34:58;;;;;;;2.53;2.20;;;34.40;46.00;;;;;;5055202;28;20456;-56
2022/08/09 10:37:25;;;;;;;3.07;2.30;;;33.70;45.40;;;;;;5055405;28;20487;-56
2022/08/09 10:39:53;;;;;;;2.67;2.47;;;33.80;45.80;;;;;;5055338;28;20460;-56
2022/08/09 10:42:21;;;;;;;3.00;2.50;;;33.70;45.70;;;;;;5055373;28;20449;-56
2022/08/09 10:44:52;;;;;;;3.13;2.40;;;33.00;45.30;;;;;;5055217;28;20461;-56
2022/08/09 10:47:40;;;;;;;2.80;2.60;;;33.30;45.90;;;;;;5053708;28;20992;-56
2022/08/09 10:50:17;;;;;;;3.33;2.60;;;33.80;45.10;;;;;;5055502;28;20464;-56
2022/08/09 10:53:05;;;;;;;2.73;2.53;;;33.80;45.70;;;;;;5055053;28;20459;-56
2022/08/09 10:55:34;;;;;;;2.63;2.43;;;33.90;45.10;;;;;;5055282;28;20524;-56
2022/08/09 10:58:02;;;;;;;3.20;2.50;;;34.20;44.90;;;;;;5054879;28;20484;-56
2022/08/09 11:00:42;;;;;;;2.40;2.20;;;34.70;44.50;;;;;;5054949;28;20468;-56
2022/08/09 11:03:22;;;;;;;3.23;2.27;;;35.10;44.20;;;;;;5054726;28;20429;-56
2022/08/09 11:06:19;;;;;;;6.37;2.70;;;34.90;42.90;;;;;;5054752;28;20433;-56
2022/08/09 11:09:35;;;;;;;3.03;2.73;;;34.30;44.30;;;;;;5054984;28;20872;-56
2022/08/09 11:12:14;;;;;;;4.33;2.57;;;34.20;44.00;;;;;;5054535;28;20421;-56
2022/08/09 11:14:43;;;;;;;3.33;2.60;;;33.60;43.70;;;;;;5054779;28;20531;-56
2022/08/09 11:17:51;;;;;;;2.83;2.50;;;33.70;43.10;;;;;;5054267;28;20850;-56
2022/08/09 11:20:40;;;;;;;2.77;2.33;;;34.00;43.30;;;;;;5054231;28;20916;-56
2022/08/09 11:23:07;;;;;;;4.17;2.70;;;33.10;43.50;;;;;;5054427;28;20453;-56
2022/08/09 11:25:52;;;;;;;2.40;2.20;;;33.00;43.60;;;;;;5054138;28;20444;-56
2022/08/09 11:28:40;;;;;;;4.60;4.20;;;33.50;43.80;;;;;;5053759;28;20524;-56
2022/08/09 11:31:46;;;;;;;2.50;2.30;;;34.20;43.30;;;;;;5054206;28;20457;-56
2022/08/09 11:34:36;;;;;;;3.00;2.70;;;33.90;42.70;;;;;;5054536;28;20828;-56
2022/08/09 11:37:04;;;;;;;3.03;2.73;;;33.60;42.80;;;;;;5054525;28;20476;-56
2022/08/09 11:39:32;;;;;;;4.90;2.57;;;33.50;42.50;;;;;;5054231;28;20510;-56
2022/08/09 11:42:07;;;;;;;2.50;2.30;;;33.90;43.40;;;;;;5054112;28;20500;-56
2022/08/09 11:44:44;;;;;;;3.07;2.30;;;33.20;42.50;;;;;;5054144;28;20516;-56
2022/08/09 11:47:12;;;;;;;2.63;2.13;;;34.10;42.70;;;;;;5053830;28;20469;-56
2022/08/09 11:49:59;;;;;;;6.73;2.30;;;34.10;42.60;;;;;;5053812;28;20456;-56
2022/08/09 11:52:27;;;;;;;2.57;2.37;;;34.10;42.40;;;;;;5053714;28;21008;-56
2022/08/09 11:55:33;;;;;;;3.00;2.73;;;33.90;42.50;;;;;;5053893;28;20444;-56
2022/08/09 11:58:01;;;;;;;5.70;2.30;;;33.70;42.20;;;;;;5053220;28;20476;-56
2022/08/09 12:00:30;;;;;;;2.67;2.40;;;33.80;42.90;;;;;;5053853;28;20583;-56
2022/08/09 12:02:59;;;;;;;2.83;2.60;;;33.70;41.90;;;;;;5053464;28;20481;-56
2022/08/09 12:05:34;;;;;;;2.93;2.50;;;33.60;42.00;;;;;;5053751;28;20495;-56
2022/08/09 12:08:08;;;;;;;2.40;2.20;;;33.80;41.70;;;;;;5053229;28;20436;-56
2022/08/09 12:10:36;;;;;;;2.50;2.30;;;34.10;42.70;;;;;;5053324;28;20539;-56
2022/08/09 12:13:03;;;;;;;3.27;2.17;;;34.00;43.00;;;;;;5053279;28;20540;-56
2022/08/09 12:15:30;;;;;;;2.40;2.20;;;33.80;42.70;;;;;;5053661;28;20450;-58
2022/08/09 12:17:57;;;;;;;2.60;2.40;;;33.50;42.60;;;;;;5053138;28;20561;-56
2022/08/09 12:20:29;;;;;;;2.67;2.47;;;33.50;43.20;;;;;;5053129;28;20487;-56
2022/08/09 12:22:58;;;;;;;3.10;2.77;;;33.60;42.60;;;;;;5053357;28;20465;-56
2022/08/09 12:25:28;;;;;;;3.03;2.37;;;33.40;42.80;;;;;;5053230;28;20540;-56
2022/08/09 12:28:12;;;;;;;3.00;2.40;;;33.40;42.50;;;;;;5053451;28;20816;-56
2022/08/09 12:30:39;;;;;;;2.30;2.10;;;33.40;42.90;;;;;;5053404;28;20469;-56
2022/08/09 12:33:06;;;;;;;2.80;2.60;;;33.70;42.60;;;;;;5053443;28;20984;-56
2022/08/09 12:35:33;;;;;;;3.13;2.20;;;33.50;42.50;;;;;;5053013;28;20456;-56
2022/08/09 12:38:17;;;;;;;3.73;2.50;;;33.20;42.30;;;;;;5052692;28;20813;-55
2022/08/09 12:40:47;;;;;;;3.20;2.50;;;33.70;42.40;;;;;;5053037;28;21003;-56
2022/08/09 12:43:15;;;;;;;3.10;2.53;;;33.80;42.30;;;;;;5052878;28;20449;-56
2022/08/09 12:45:45;;;;;;;3.87;2.07;;;33.60;42.50;;;;;;5053010;28;20452;-56
2022/08/09 12:48:14;;;;;;;3.00;2.20;;;33.40;42.70;;;;;;5052801;28;20414;-56
2022/08/09 12:50:42;;;;;;;10.70;3.00;;;33.60;42.30;;;;;;5052269;28;20969;-56
2022/08/09 12:53:25;;;;;;;4.00;2.33;;;33.80;42.40;;;;;;5052718;28;20453;-57
2022/08/09 12:56:05;;;;;;;3.40;2.10;;;33.50;41.50;;;;;;5052858;28;20432;-57
2022/08/09 12:58:33;;;;;;;2.73;2.53;;;33.70;42.20;;;;;;5052597;28;20464;-57
2022/08/09 13:01:01;;;;;;;2.97;2.20;;;34.10;42.10;;;;;;5052301;28;21011;-57
2022/08/09 13:03:30;;;;;;;7.23;2.40;;;33.60;41.30;;;;;;5052229;28;20489;-57
2022/08/09 13:05:57;;;;;;;2.77;2.43;;;33.20;41.40;;;;;;5052737;28;20448;-57